createdAt,value
2022-12-03T00:00:22.441Z,19.19
2022-12-03T00:02:49.117Z,19.15
2022-12-03T00:05:15.699Z,19.12
2022-12-03T00:07:42.171Z,19.12
2022-12-03T00:10:09.538Z,19.09
2022-12-03T00:12:35.966Z,19.05
2022-12-03T00:15:02.515Z,19.02
2022-12-03T00:17:28.981Z,19.01
2022-12-03T00:19:55.444Z,18.99
2022-12-03T00:22:21.893Z,18.98
2022-12-03T00:24:48.372Z,18.98
2022-12-03T00:27:14.876Z,18.93
2022-12-03T00:29:41.296Z,18.91
2022-12-03T00:32:07.783Z,18.89
2022-12-03T00:34:34.228Z,18.87
2022-12-03T00:37:00.685Z,18.87
2022-12-03T00:39:27.239Z,18.85
2022-12-03T00:41:53.674Z,18.80
2022-12-03T00:44:20.104Z,18.79
2022-12-03T00:46:46.659Z,18.77
2022-12-03T00:49:13.229Z,18.77
2022-12-03T00:51:39.749Z,18.74
2022-12-03T00:54:06.260Z,18.70
2022-12-03T00:56:32.840Z,18.67
2022-12-03T00:58:59.355Z,18.69
2022-12-03T01:01:25.967Z,18.65
2022-12-03T01:03:52.450Z,18.63
2022-12-03T01:06:18.889Z,18.62
2022-12-03T01:08:45.443Z,18.61
2022-12-03T01:11:30.069Z,18.58
2022-12-03T01:13:56.531Z,18.56
2022-12-03T01:16:23.125Z,18.56
2022-12-03T01:18:52.284Z,18.53
2022-12-03T01:21:19.787Z,18.53
2022-12-03T01:23:46.449Z,18.51
2022-12-03T01:26:12.987Z,18.49
2022-12-03T01:28:41.744Z,18.47
2022-12-03T01:31:27.848Z,18.46
2022-12-03T01:33:54.739Z,18.45
2022-12-03T01:36:21.257Z,18.43
2022-12-03T01:38:48.862Z,18.41
2022-12-03T01:41:17.532Z,18.40
2022-12-03T01:43:44.678Z,18.39
2022-12-03T01:46:23.989Z,18.37
2022-12-03T01:48:52.973Z,18.34
2022-12-03T01:51:19.806Z,18.34
2022-12-03T01:53:46.576Z,18.33
2022-12-03T01:56:15.672Z,18.31
2022-12-03T01:58:43.432Z,18.30
2022-12-03T02:01:15.935Z,18.29
2022-12-03T02:03:43.654Z,18.27
2022-12-03T02:06:16.830Z,18.26
2022-12-03T02:08:43.696Z,18.24
2022-12-03T02:11:24.403Z,18.23
2022-12-03T02:13:55.447Z,18.21
2022-12-03T02:16:22.094Z,18.20
2022-12-03T02:18:48.813Z,18.17
2022-12-03T02:21:43.559Z,18.15
2022-12-03T02:24:43.663Z,18.13
2022-12-03T02:27:10.107Z,18.13
2022-12-03T02:29:36.948Z,18.11
2022-12-03T02:32:03.818Z,18.10
2022-12-03T02:34:39.458Z,18.09
2022-12-03T02:37:09.810Z,18.08
2022-12-03T02:39:40.028Z,18.06
2022-12-03T02:42:26.004Z,18.07
2022-12-03T02:44:53.300Z,18.05
2022-12-03T02:47:22.291Z,18.02
2022-12-03T02:49:49.626Z,18.01
2022-12-03T02:52:16.272Z,18.00
2022-12-03T02:54:42.967Z,17.99
2022-12-03T02:57:09.660Z,17.96
2022-12-03T02:59:36.205Z,17.99
2022-12-03T03:02:02.795Z,17.98
2022-12-03T03:04:29.901Z,17.96
2022-12-03T03:06:56.632Z,17.97
2022-12-03T03:09:23.145Z,17.94
2022-12-03T03:11:49.577Z,17.93
2022-12-03T03:14:16.100Z,17.93
2022-12-03T03:16:42.720Z,17.91
2022-12-03T03:19:09.483Z,17.90
2022-12-03T03:21:35.943Z,17.88
2022-12-03T03:24:03.074Z,17.89
2022-12-03T03:26:29.538Z,17.89
2022-12-03T03:28:57.525Z,17.86
2022-12-03T03:31:24.429Z,17.84
2022-12-03T03:33:51.733Z,17.82
2022-12-03T03:36:19.488Z,17.82
2022-12-03T03:38:47.068Z,17.78
2022-12-03T03:41:14.476Z,17.79
2022-12-03T03:43:42.907Z,17.78
2022-12-03T03:46:10.781Z,17.80
2022-12-03T03:48:37.917Z,17.79
2022-12-03T03:51:09.249Z,17.77
2022-12-03T03:53:38.989Z,17.75
2022-12-03T03:56:06.154Z,17.75
2022-12-03T03:58:32.904Z,17.74
2022-12-03T04:01:01.338Z,17.74
2022-12-03T04:03:29.140Z,17.71
2022-12-03T04:05:55.656Z,17.69
2022-12-03T04:08:22.081Z,17.68
2022-12-03T04:11:07.123Z,17.67
2022-12-03T04:13:33.572Z,17.66
2022-12-03T04:15:59.972Z,17.65
2022-12-03T04:18:44.724Z,17.65
2022-12-03T04:21:35.784Z,17.64
2022-12-03T04:24:02.521Z,17.63
2022-12-03T04:26:47.764Z,17.61
2022-12-03T04:29:14.246Z,17.60
2022-12-03T04:31:59.349Z,17.57
2022-12-03T04:34:44.236Z,17.57
2022-12-03T04:37:11.081Z,17.55
2022-12-03T04:39:38.008Z,17.55
2022-12-03T04:42:05.823Z,17.55
2022-12-03T04:44:33.167Z,17.55
2022-12-03T04:47:00.582Z,17.54
2022-12-03T04:49:27.125Z,17.53
2022-12-03T04:51:53.596Z,17.52
2022-12-03T04:54:20.018Z,17.49
2022-12-03T04:56:46.499Z,17.51
2022-12-03T04:59:16.264Z,17.49
2022-12-03T05:01:44.041Z,17.47
2022-12-03T05:04:11.337Z,17.47
2022-12-03T05:06:37.990Z,17.46
2022-12-03T05:09:05.071Z,17.46
2022-12-03T05:11:31.870Z,17.45
2022-12-03T05:13:58.440Z,17.44
2022-12-03T05:16:25.002Z,17.43
2022-12-03T05:18:51.559Z,17.44
2022-12-03T05:21:18.032Z,17.42
2022-12-03T05:23:44.520Z,17.42
2022-12-03T05:26:11.370Z,17.41
2022-12-03T05:28:37.959Z,17.38
2022-12-03T05:31:05.792Z,17.36
2022-12-03T05:33:32.304Z,17.36
2022-12-03T05:35:59.014Z,17.36
2022-12-03T05:38:25.508Z,17.33
2022-12-03T05:40:52.016Z,17.35
2022-12-03T05:43:18.512Z,17.33
2022-12-03T05:45:45.354Z,17.34
2022-12-03T05:48:16.306Z,17.34
2022-12-03T05:50:45.114Z,17.36
2022-12-03T05:53:12.727Z,17.34
2022-12-03T05:55:39.444Z,17.38
2022-12-03T05:58:06.932Z,17.42
2022-12-03T06:00:42.479Z,17.49
2022-12-03T06:03:10.061Z,17.55
2022-12-03T06:05:36.747Z,17.62
2022-12-03T06:08:03.569Z,17.69
2022-12-03T06:10:30.512Z,17.79
2022-12-03T06:12:57.013Z,17.88
2022-12-03T06:15:25.516Z,17.98
2022-12-03T06:17:52.341Z,18.07
2022-12-03T06:20:20.206Z,18.16
2022-12-03T06:22:50.107Z,18.26
2022-12-03T06:25:19.402Z,18.36
2022-12-03T06:27:45.860Z,18.45
2022-12-03T06:30:14.846Z,18.54
2022-12-03T06:32:42.557Z,18.64
2022-12-03T06:35:09.238Z,18.73
2022-12-03T06:37:35.806Z,18.81
2022-12-03T06:40:03.101Z,18.89
2022-12-03T06:42:29.699Z,18.97
2022-12-03T06:44:56.439Z,19.05
2022-12-03T06:47:23.430Z,19.12
2022-12-03T06:49:49.989Z,19.19
2022-12-03T06:52:16.565Z,19.24
2022-12-03T06:54:42.978Z,19.30
2022-12-03T06:57:09.420Z,19.36
2022-12-03T06:59:37.480Z,19.42
2022-12-03T07:02:04.878Z,19.47
2022-12-03T07:04:31.414Z,19.51
2022-12-03T07:06:58.002Z,19.53
2022-12-03T07:09:24.529Z,19.59
2022-12-03T07:11:51.031Z,19.62
2022-12-03T07:14:17.502Z,19.64
2022-12-03T07:16:44.162Z,19.67
2022-12-03T07:19:11.091Z,19.70
2022-12-03T07:21:38.114Z,19.72
2022-12-03T07:24:05.540Z,19.73
2022-12-03T07:26:32.111Z,19.74
2022-12-03T07:28:58.807Z,19.75
2022-12-03T07:31:25.336Z,19.77
2022-12-03T07:33:51.835Z,19.76
2022-12-03T07:36:18.317Z,19.77
2022-12-03T07:38:44.796Z,19.77
2022-12-03T07:41:11.360Z,19.79
2022-12-03T07:43:37.816Z,19.79
2022-12-03T07:46:04.310Z,19.80
2022-12-03T07:48:30.733Z,19.81
2022-12-03T07:50:57.182Z,19.81
2022-12-03T07:53:23.620Z,19.81
2022-12-03T07:55:50.058Z,19.80
2022-12-03T07:58:16.528Z,19.82
2022-12-03T08:00:42.981Z,19.81
2022-12-03T08:03:09.490Z,19.84
2022-12-03T08:05:35.935Z,19.84
2022-12-03T08:08:02.461Z,19.84
2022-12-03T08:10:28.983Z,19.83
2022-12-03T08:12:58.282Z,19.84
2022-12-03T08:15:26.823Z,19.85
2022-12-03T08:17:59.230Z,19.86
2022-12-03T08:20:31.539Z,19.87
2022-12-03T08:22:58.003Z,19.89
2022-12-03T08:25:25.701Z,19.90
2022-12-03T08:27:55.574Z,19.90
2022-12-03T08:30:22.242Z,19.92
2022-12-03T08:32:48.911Z,19.92
2022-12-03T08:35:22.823Z,19.92
2022-12-03T08:38:01.686Z,19.93
2022-12-03T08:40:37.070Z,19.93
2022-12-03T08:43:13.767Z,19.92
2022-12-03T08:45:42.094Z,19.92
2022-12-03T08:48:29.584Z,19.93
2022-12-03T08:50:59.232Z,19.92
2022-12-03T08:53:34.974Z,19.93
2022-12-03T08:56:19.316Z,19.94
2022-12-03T08:58:49.473Z,19.95
2022-12-03T09:01:28.840Z,19.96
2022-12-03T09:03:57.938Z,19.96
2022-12-03T09:06:24.563Z,19.98
2022-12-03T09:08:51.011Z,20.00
2022-12-03T09:11:17.489Z,20.02
2022-12-03T09:13:44.011Z,20.05
2022-12-03T09:16:10.593Z,20.06
2022-12-03T09:18:37.143Z,20.07
2022-12-03T09:21:03.669Z,20.10
2022-12-03T09:23:30.191Z,20.11
2022-12-03T09:25:56.681Z,20.11
2022-12-03T09:28:23.190Z,20.12
2022-12-03T09:30:49.763Z,20.13
2022-12-03T09:33:16.284Z,20.15
2022-12-03T09:35:42.765Z,20.14
2022-12-03T09:38:09.317Z,20.15
2022-12-03T09:40:35.854Z,20.15
2022-12-03T09:43:02.386Z,20.15
2022-12-03T09:45:28.876Z,20.16
2022-12-03T09:47:55.399Z,20.18
2022-12-03T09:50:25.394Z,20.21
2022-12-03T09:52:54.952Z,20.24
2022-12-03T09:55:25.467Z,20.26
2022-12-03T09:57:56.935Z,20.26
2022-12-03T10:00:26.984Z,20.18
2022-12-03T10:02:56.371Z,20.17
2022-12-03T10:05:23.837Z,20.19
2022-12-03T10:07:52.229Z,20.19
2022-12-03T10:10:22.185Z,20.18
2022-12-03T10:12:49.981Z,20.19
2022-12-03T10:15:18.962Z,20.19
2022-12-03T10:17:51.072Z,20.19
2022-12-03T10:20:19.538Z,20.21
2022-12-03T10:22:48.622Z,20.20
2022-12-03T10:25:18.176Z,20.22
2022-12-03T10:27:56.033Z,20.21
2022-12-03T10:30:26.381Z,20.22
2022-12-03T10:32:52.967Z,20.19
2022-12-03T10:35:21.322Z,20.19
2022-12-03T10:37:56.722Z,20.17
2022-12-03T10:40:30.412Z,20.16
2022-12-03T10:43:16.025Z,20.20
2022-12-03T10:45:43.077Z,20.18
2022-12-03T10:48:19.700Z,20.20
2022-12-03T10:50:52.823Z,20.18
2022-12-03T10:53:21.372Z,20.18
2022-12-03T10:55:51.028Z,20.17
2022-12-03T10:58:23.444Z,20.16
2022-12-03T11:00:51.556Z,20.17
2022-12-03T11:03:23.450Z,20.16
2022-12-03T11:05:50.957Z,20.15
2022-12-03T11:08:23.919Z,20.20
2022-12-03T11:11:13.250Z,20.22
2022-12-03T11:13:39.738Z,20.25
2022-12-03T11:16:08.279Z,20.31
2022-12-03T11:18:37.837Z,20.37
2022-12-03T11:21:08.903Z,20.40
2022-12-03T11:23:44.394Z,20.43
2022-12-03T11:26:29.257Z,20.47
2022-12-03T11:28:57.713Z,20.49
2022-12-03T11:31:40.929Z,20.49
2022-12-03T11:34:17.065Z,20.52
2022-12-03T11:37:11.776Z,20.51
2022-12-03T11:39:55.673Z,20.56
2022-12-03T11:42:25.539Z,20.59
2022-12-03T11:45:03.985Z,20.58
2022-12-03T11:48:00.406Z,20.55
2022-12-03T11:50:55.864Z,20.58
2022-12-03T11:53:27.208Z,20.54
2022-12-03T11:56:11.162Z,20.54
2022-12-03T11:58:39.973Z,20.57
2022-12-03T12:01:07.800Z,20.59
2022-12-03T12:03:37.266Z,20.58
2022-12-03T12:06:39.480Z,20.58
2022-12-03T12:09:05.973Z,20.51
2022-12-03T12:11:34.079Z,20.43
2022-12-03T12:14:09.441Z,20.40
2022-12-03T12:16:39.023Z,20.36
2022-12-03T12:19:33.269Z,20.39
2022-12-03T12:22:16.758Z,20.42
2022-12-03T12:24:45.836Z,20.43
2022-12-03T12:27:12.206Z,20.44
2022-12-03T12:29:45.749Z,20.47
2022-12-03T12:32:17.373Z,20.45
2022-12-03T12:34:49.267Z,20.42
2022-12-03T12:37:30.770Z,20.41
2022-12-03T12:39:57.980Z,20.37
2022-12-03T12:42:36.438Z,20.38
2022-12-03T12:45:16.404Z,20.44
2022-12-03T12:47:48.431Z,20.50
2022-12-03T12:50:16.657Z,20.57
2022-12-03T12:52:55.142Z,20.64
2022-12-03T12:55:23.007Z,20.73
2022-12-03T13:00:23.553Z,20.86
2022-12-03T13:02:55.855Z,20.95
2022-12-03T13:05:23.939Z,21.02
2022-12-03T13:07:52.772Z,21.09
2022-12-03T13:10:33.746Z,21.14
2022-12-03T13:13:44.005Z,21.20
2022-12-03T13:16:28.416Z,21.28
2022-12-03T13:18:57.344Z,21.34
2022-12-03T13:21:40.982Z,21.39
2022-12-03T13:24:37.996Z,21.44
2022-12-03T13:27:13.570Z,21.50
2022-12-03T13:29:40.189Z,21.54
2022-12-03T13:32:13.645Z,21.58
2022-12-03T13:34:40.742Z,21.63
2022-12-03T13:37:14.180Z,21.66
2022-12-03T13:39:57.897Z,21.71
2022-12-03T13:42:39.011Z,21.74
2022-12-03T13:45:35.609Z,21.79
2022-12-03T13:48:13.612Z,21.83
2022-12-03T13:50:43.964Z,21.87
2022-12-03T13:53:27.304Z,21.89
2022-12-03T13:55:58.016Z,21.92
2022-12-03T13:58:24.474Z,21.94
2022-12-03T14:00:50.949Z,21.98
2022-12-03T14:03:17.712Z,22.00
2022-12-03T14:05:44.196Z,22.02
2022-12-03T14:08:10.697Z,22.05
2022-12-03T14:10:37.177Z,22.08
2022-12-03T14:13:03.616Z,22.10
2022-12-03T14:15:30.121Z,22.14
2022-12-03T14:17:56.615Z,22.16
2022-12-03T14:20:23.070Z,22.18
2022-12-03T14:22:49.559Z,22.19
2022-12-03T14:25:16.212Z,22.21
2022-12-03T14:27:42.693Z,22.22
2022-12-03T14:30:09.742Z,22.25
2022-12-03T14:32:36.230Z,22.29
2022-12-03T14:35:08.118Z,22.31
2022-12-03T14:37:36.646Z,22.34
2022-12-03T14:40:03.867Z,22.36
2022-12-03T14:42:30.464Z,22.37
2022-12-03T14:44:59.834Z,22.37
2022-12-03T14:47:26.288Z,22.38
2022-12-03T14:49:53.266Z,22.38
2022-12-03T14:52:20.215Z,22.38
2022-12-03T14:54:46.777Z,22.38
2022-12-03T14:57:14.469Z,22.38
2022-12-03T14:59:42.394Z,22.38
2022-12-03T15:02:10.130Z,22.38
2022-12-03T15:04:37.248Z,22.38
2022-12-03T15:07:04.092Z,22.34
2022-12-03T15:09:30.778Z,22.36
2022-12-03T15:11:57.289Z,22.33
2022-12-03T15:14:23.769Z,22.32
2022-12-03T15:16:50.365Z,22.32
2022-12-03T15:19:17.111Z,22.29
2022-12-03T15:21:43.570Z,22.30
2022-12-03T15:24:10.632Z,22.30
2022-12-03T15:26:37.100Z,22.28
2022-12-03T15:29:03.599Z,22.27
2022-12-03T15:31:30.150Z,22.28
2022-12-03T15:33:56.685Z,22.26
2022-12-03T15:36:23.166Z,22.26
2022-12-03T15:38:49.714Z,22.24
2022-12-03T15:41:24.635Z,22.25
2022-12-03T15:43:54.761Z,22.24
2022-12-03T15:46:21.408Z,22.23
2022-12-03T15:48:48.443Z,22.24
2022-12-03T15:51:15.330Z,22.23
2022-12-03T15:53:42.253Z,22.22
2022-12-03T15:56:09.089Z,22.22
2022-12-03T15:58:35.594Z,22.21
2022-12-03T16:01:02.149Z,22.23
2022-12-03T16:03:28.988Z,22.22
2022-12-03T16:05:55.481Z,22.22
2022-12-03T16:08:22.184Z,22.22
2022-12-03T16:10:48.686Z,22.22
2022-12-03T16:13:15.245Z,22.20
2022-12-03T16:15:41.780Z,22.22
2022-12-03T16:18:08.314Z,22.21
2022-12-03T16:20:34.780Z,22.22
2022-12-03T16:23:01.209Z,22.21
2022-12-03T16:25:27.727Z,22.22
2022-12-03T16:27:54.289Z,22.22
2022-12-03T16:30:20.767Z,22.22
2022-12-03T16:32:47.201Z,22.23
2022-12-03T16:35:28.216Z,22.23
2022-12-03T16:38:03.854Z,22.21
2022-12-03T16:40:30.345Z,22.19
2022-12-03T16:42:56.805Z,22.15
2022-12-03T16:45:40.714Z,22.11
2022-12-03T16:48:07.162Z,22.07
2022-12-03T16:50:34.310Z,22.03
2022-12-03T16:53:00.934Z,22.01
2022-12-03T16:55:27.476Z,21.98
2022-12-03T17:02:48.695Z,21.97
2022-12-03T17:05:15.226Z,21.97
2022-12-03T17:10:08.412Z,21.98
2022-12-03T17:13:07.070Z,21.98
2022-12-03T17:15:21.444Z,22.00
2022-12-03T17:17:47.972Z,22.02
2022-12-03T17:20:14.751Z,22.02
2022-12-03T17:22:41.757Z,22.03
2022-12-03T17:25:08.907Z,22.06
2022-12-03T17:27:37.053Z,22.06
2022-12-03T17:30:07.287Z,22.09
2022-12-03T17:32:34.070Z,22.09
2022-12-03T17:35:00.600Z,22.11
2022-12-03T17:37:27.094Z,22.13
2022-12-03T17:39:53.881Z,22.13
2022-12-03T17:42:20.857Z,22.15
2022-12-03T17:44:47.346Z,22.15
2022-12-03T17:47:13.804Z,22.18
2022-12-03T17:49:40.309Z,22.17
2022-12-03T17:52:06.734Z,22.17
2022-12-03T17:54:55.103Z,22.15
2022-12-03T17:57:19.582Z,22.11
2022-12-03T17:59:46.046Z,22.09
2022-12-03T18:02:12.639Z,22.05
2022-12-03T18:04:39.244Z,21.98
2022-12-03T18:07:05.653Z,21.94
2022-12-03T18:09:32.106Z,21.88
2022-12-03T18:11:58.609Z,21.80
2022-12-03T18:14:25.086Z,21.74
2022-12-03T18:16:51.490Z,21.67
2022-12-03T18:19:18.014Z,21.61
2022-12-03T18:21:44.602Z,21.57
2022-12-03T18:24:11.112Z,21.55
2022-12-03T18:26:37.869Z,21.55
2022-12-03T18:29:04.385Z,21.54
2022-12-03T18:31:30.913Z,21.54
2022-12-03T18:33:57.382Z,21.55
2022-12-03T18:36:26.309Z,21.58
2022-12-03T18:38:55.225Z,21.60
2022-12-03T18:41:24.094Z,21.64
2022-12-03T18:43:51.185Z,21.67
2022-12-03T18:46:51.302Z,21.70
2022-12-03T18:49:05.840Z,21.74
2022-12-03T18:51:32.481Z,21.76
2022-12-03T18:53:58.959Z,21.82
2022-12-03T18:56:28.198Z,21.85
2022-12-03T18:58:54.927Z,21.87
2022-12-03T19:01:25.880Z,21.91
2022-12-03T19:03:53.990Z,21.96
2022-12-03T19:06:21.468Z,21.99
2022-12-03T19:08:51.463Z,22.03
2022-12-03T19:11:18.141Z,22.06
2022-12-03T19:13:45.782Z,22.09
2022-12-03T19:16:12.734Z,22.13
2022-12-03T19:18:39.583Z,22.15
2022-12-03T19:21:10.706Z,22.17
2022-12-03T19:23:40.478Z,22.20
2022-12-03T19:26:09.450Z,22.22
2022-12-03T19:28:36.520Z,22.25
2022-12-03T19:31:09.638Z,22.28
2022-12-03T19:33:36.404Z,22.31
2022-12-03T19:36:07.621Z,22.33
2022-12-03T19:38:38.787Z,22.35
2022-12-03T19:41:10.565Z,22.38
2022-12-03T19:43:38.300Z,22.40
2022-12-03T19:46:12.200Z,22.41
2022-12-03T19:48:40.518Z,22.43
2022-12-03T19:51:33.153Z,22.44
2022-12-03T19:53:55.232Z,22.44
2022-12-03T19:56:22.161Z,22.46
2022-12-03T19:58:48.661Z,22.45
2022-12-03T20:01:18.803Z,22.47
2022-12-03T20:03:47.772Z,22.48
2022-12-03T20:06:16.102Z,22.49
2022-12-03T20:08:43.175Z,22.49
2022-12-03T20:11:21.029Z,22.50
2022-12-03T20:13:48.794Z,22.52
2022-12-03T20:16:18.655Z,22.51
2022-12-03T20:18:49.290Z,22.52
2022-12-03T20:21:18.736Z,22.52
2022-12-03T20:23:46.251Z,22.52
2022-12-03T20:26:16.079Z,22.54
2022-12-03T20:28:42.660Z,22.53
2022-12-03T20:31:14.723Z,22.54
2022-12-03T20:33:50.519Z,22.54
2022-12-03T20:36:24.002Z,22.56
2022-12-03T20:38:55.120Z,22.56
2022-12-03T20:41:23.712Z,22.56
2022-12-03T20:44:30.393Z,22.56
2022-12-03T20:47:27.966Z,22.56
2022-12-03T20:49:57.768Z,22.57
2022-12-03T20:52:27.417Z,22.57
2022-12-03T20:54:57.361Z,22.56
2022-12-03T20:57:24.685Z,22.56
2022-12-03T21:00:16.418Z,22.58
2022-12-03T21:02:46.259Z,22.57
2022-12-03T21:05:34.200Z,22.58
2022-12-03T21:08:40.171Z,22.59
2022-12-03T21:14:21.845Z,22.57
2022-12-03T21:19:44.969Z,22.58
2022-12-03T21:28:01.874Z,22.58
2022-12-03T21:30:28.416Z,22.58
2022-12-03T21:32:55.793Z,22.59
2022-12-03T21:35:46.824Z,22.60
2022-12-03T21:41:41.145Z,22.58
2022-12-03T21:45:12.114Z,22.58
2022-12-03T21:50:31.268Z,22.61
2022-12-03T21:56:21.071Z,22.59
2022-12-03T21:58:50.720Z,22.59
2022-12-03T22:01:22.555Z,22.59
2022-12-03T22:03:49.735Z,22.59
2022-12-03T22:06:17.374Z,22.59
2022-12-03T22:08:44.271Z,22.61
2022-12-03T22:11:19.543Z,22.60
2022-12-03T22:13:46.851Z,22.63
2022-12-03T22:16:16.416Z,22.62
2022-12-03T22:18:45.477Z,22.63
2022-12-03T22:21:14.600Z,22.63
2022-12-03T22:23:42.071Z,22.64
2022-12-03T22:26:14.039Z,22.61
2022-12-03T22:28:47.895Z,22.59
2022-12-03T22:31:15.525Z,22.55
2022-12-03T22:33:43.415Z,22.53
2022-12-03T22:36:20.095Z,22.47
2022-12-03T22:38:48.494Z,22.41
2022-12-03T22:41:15.709Z,22.36
2022-12-03T22:43:42.809Z,22.32
2022-12-03T22:46:13.080Z,22.24
2022-12-03T22:48:41.224Z,22.18
2022-12-03T22:51:26.286Z,22.10
2022-12-03T22:53:57.258Z,22.03
2022-12-03T22:56:24.726Z,21.96
2022-12-03T22:58:51.663Z,21.90
2022-12-03T23:01:47.666Z,21.81
2022-12-03T23:04:14.236Z,21.73
2022-12-03T23:06:41.245Z,21.67
2022-12-03T23:09:08.151Z,21.61
2022-12-03T23:11:34.945Z,21.55
2022-12-03T23:14:01.941Z,21.48
2022-12-03T23:16:32.074Z,21.44
2022-12-03T23:18:59.757Z,21.39
2022-12-03T23:21:30.301Z,21.31
2022-12-03T23:24:01.473Z,21.26
2022-12-03T23:26:28.985Z,21.22
2022-12-03T23:28:56.006Z,21.14
2022-12-03T23:31:29.341Z,21.10
2022-12-03T23:33:59.827Z,21.05
2022-12-03T23:36:29.402Z,20.99
2022-12-03T23:38:59.083Z,20.92
2022-12-03T23:41:26.296Z,20.87
2022-12-03T23:43:53.257Z,20.81
2022-12-03T23:46:22.851Z,20.77
2022-12-03T23:48:50.955Z,20.72
2022-12-03T23:51:20.226Z,20.65
2022-12-03T23:53:47.640Z,20.60
2022-12-03T23:56:17.059Z,20.56
2022-12-03T23:58:49.893Z,20.51
